createdAt,value
2023-03-29T00:00:09.021Z,7.00
2023-03-29T00:02:39.247Z,7.00
2023-03-29T00:05:07.011Z,7.00
2023-03-29T00:07:36.323Z,6.90
2023-03-29T00:10:06.736Z,6.90
2023-03-29T00:12:33.989Z,6.90
2023-03-29T00:15:02.004Z,6.90
2023-03-29T00:17:29.482Z,6.90
2023-03-29T00:19:56.865Z,6.90
2023-03-29T00:22:24.424Z,6.90
2023-03-29T00:24:54.992Z,6.90
2023-03-29T00:27:22.692Z,6.80
2023-03-29T00:29:49.828Z,6.90
2023-03-29T00:32:17.208Z,6.80
2023-03-29T00:34:46.070Z,6.80
2023-03-29T00:37:14.930Z,6.80
2023-03-29T00:39:42.315Z,6.80
2023-03-29T00:42:13.848Z,6.80
2023-03-29T00:45:09.856Z,6.70
2023-03-29T00:47:53.410Z,6.70
2023-03-29T00:50:32.202Z,6.70
2023-03-29T00:53:05.208Z,6.60
2023-03-29T00:55:44.448Z,6.60
2023-03-29T00:58:15.271Z,6.60
2023-03-29T01:00:52.448Z,6.60
2023-03-29T01:03:25.969Z,6.60
2023-03-29T01:06:07.942Z,6.60
2023-03-29T01:09:01.358Z,6.60
2023-03-29T01:11:47.435Z,6.60
2023-03-29T01:14:38.639Z,6.50
2023-03-29T01:17:06.713Z,6.50
2023-03-29T01:19:50.745Z,6.50
2023-03-29T01:23:00.968Z,6.40
2023-03-29T01:25:55.869Z,6.40
2023-03-29T01:28:28.554Z,6.40
2023-03-29T01:31:07.183Z,6.40
2023-03-29T01:33:46.313Z,6.30
2023-03-29T01:36:27.250Z,6.30
2023-03-29T01:38:59.355Z,6.30
2023-03-29T01:42:05.702Z,6.20
2023-03-29T01:44:44.189Z,6.20
2023-03-29T01:47:20.160Z,6.20
2023-03-29T01:50:14.337Z,6.20
2023-03-29T01:52:51.933Z,6.20
2023-03-29T01:55:24.896Z,6.10
2023-03-29T01:57:54.921Z,6.10
2023-03-29T02:00:27.767Z,6.10
2023-03-29T02:03:00.380Z,6.10
2023-03-29T02:05:30.701Z,6.10
2023-03-29T02:08:00.475Z,6.10
2023-03-29T02:10:28.437Z,6.10
2023-03-29T02:12:56.134Z,6.10
2023-03-29T02:15:23.664Z,6.00
2023-03-29T02:17:51.538Z,6.10
2023-03-29T02:20:36.932Z,6.10
2023-03-29T02:23:24.322Z,6.10
2023-03-29T02:25:57.146Z,6.10
2023-03-29T02:28:26.256Z,6.00
2023-03-29T02:31:21.343Z,6.10
2023-03-29T02:34:08.838Z,6.10
2023-03-29T02:36:44.240Z,6.10
2023-03-29T02:39:15.807Z,6.10
2023-03-29T02:41:45.929Z,6.10
2023-03-29T02:44:20.251Z,6.10
2023-03-29T02:46:52.542Z,6.10
2023-03-29T02:49:19.962Z,6.20
2023-03-29T02:51:51.417Z,6.20
2023-03-29T02:54:22.062Z,6.20
2023-03-29T02:56:56.068Z,6.30
2023-03-29T02:59:23.461Z,6.30
2023-03-29T03:01:52.854Z,6.30
2023-03-29T03:04:20.900Z,6.40
2023-03-29T03:06:50.410Z,6.40
2023-03-29T03:09:17.935Z,6.40
2023-03-29T03:11:47.377Z,6.40
2023-03-29T03:14:14.664Z,6.40
2023-03-29T03:16:42.168Z,6.40
2023-03-29T03:19:10.466Z,6.50
2023-03-29T03:21:37.912Z,6.50
2023-03-29T03:24:05.929Z,6.50
2023-03-29T03:26:33.597Z,6.60
2023-03-29T03:29:00.968Z,6.60
2023-03-29T03:31:55.111Z,6.60
2023-03-29T03:34:54.628Z,6.60
2023-03-29T03:37:25.111Z,6.70
2023-03-29T03:39:52.632Z,6.70
2023-03-29T03:42:20.604Z,6.70
2023-03-29T03:44:49.978Z,6.70
2023-03-29T03:47:39.791Z,6.70
2023-03-29T03:50:27.537Z,6.70
2023-03-29T03:52:55.206Z,6.80
2023-03-29T03:55:22.779Z,6.80
2023-03-29T03:58:12.290Z,6.80
2023-03-29T04:00:39.615Z,6.80
2023-03-29T04:03:21.973Z,6.80
2023-03-29T04:05:49.291Z,6.80
2023-03-29T04:08:18.111Z,6.80
2023-03-29T04:11:05.759Z,6.80
2023-03-29T04:13:37.332Z,6.80
2023-03-29T04:16:25.025Z,6.80
2023-03-29T04:18:52.554Z,6.80
2023-03-29T04:21:21.360Z,6.80
2023-03-29T04:23:48.872Z,6.80
2023-03-29T04:26:17.879Z,6.80
2023-03-29T04:28:51.400Z,6.80
2023-03-29T04:31:36.759Z,6.80
2023-03-29T04:34:22.792Z,6.80
2023-03-29T04:36:52.857Z,6.90
2023-03-29T04:39:23.451Z,6.90
2023-03-29T04:41:55.180Z,6.90
2023-03-29T04:44:27.053Z,6.90
2023-03-29T04:46:56.642Z,6.90
2023-03-29T04:49:42.141Z,7.00
2023-03-29T04:52:14.867Z,7.00
2023-03-29T04:54:42.095Z,7.00
2023-03-29T04:57:25.934Z,7.00
2023-03-29T04:59:53.563Z,7.00
2023-03-29T05:02:39.041Z,7.00
2023-03-29T05:05:07.414Z,7.10
2023-03-29T05:07:34.719Z,7.10
2023-03-29T05:10:02.176Z,7.10
2023-03-29T05:12:29.373Z,7.10
2023-03-29T05:14:57.537Z,7.10
2023-03-29T05:17:27.653Z,7.20
2023-03-29T05:20:01.468Z,7.20
2023-03-29T05:22:29.807Z,7.20
2023-03-29T05:24:59.536Z,7.20
2023-03-29T05:27:28.130Z,7.20
2023-03-29T05:30:07.192Z,7.20
2023-03-29T05:32:50.086Z,7.20
2023-03-29T05:35:24.468Z,7.20
2023-03-29T05:37:52.324Z,7.20
2023-03-29T05:40:19.656Z,7.20
2023-03-29T05:43:12.569Z,7.20
2023-03-29T05:45:39.757Z,7.20
2023-03-29T05:48:06.962Z,7.20
2023-03-29T05:50:35.163Z,7.20
2023-03-29T05:53:02.356Z,7.20
2023-03-29T05:55:29.798Z,7.20
2023-03-29T05:57:57.304Z,7.30
2023-03-29T06:00:30.078Z,7.30
2023-03-29T06:03:25.460Z,7.30
2023-03-29T06:05:59.322Z,7.30
2023-03-29T06:08:28.712Z,7.30
2023-03-29T06:11:09.285Z,7.30
2023-03-29T06:13:57.585Z,7.30
2023-03-29T06:16:25.982Z,7.30
2023-03-29T06:18:53.349Z,7.30
2023-03-29T06:21:20.814Z,7.30
2023-03-29T06:23:48.040Z,7.30
2023-03-29T06:26:18.030Z,7.30
2023-03-29T06:28:48.646Z,7.40
2023-03-29T06:31:17.583Z,7.40
2023-03-29T06:33:44.694Z,7.40
2023-03-29T06:36:34.488Z,7.40
2023-03-29T06:39:06.559Z,7.40
2023-03-29T06:41:55.520Z,7.50
2023-03-29T06:44:41.408Z,7.50
2023-03-29T06:47:17.589Z,7.50
2023-03-29T06:49:45.614Z,7.50
2023-03-29T06:52:32.683Z,7.50
2023-03-29T06:55:02.022Z,7.50
2023-03-29T06:57:29.573Z,7.50
2023-03-29T06:59:57.054Z,7.50
2023-03-29T07:02:34.679Z,7.50
2023-03-29T07:05:13.615Z,7.50
2023-03-29T07:08:00.298Z,7.50
2023-03-29T07:10:47.628Z,7.50
2023-03-29T07:13:24.879Z,7.50
2023-03-29T07:15:53.774Z,7.50
2023-03-29T07:18:43.102Z,7.50
2023-03-29T07:21:15.147Z,7.50
2023-03-29T07:23:42.498Z,7.50
2023-03-29T07:26:12.128Z,7.50
2023-03-29T07:28:39.812Z,7.50
2023-03-29T07:31:11.056Z,7.50
2023-03-29T07:33:45.620Z,7.50
2023-03-29T07:36:13.762Z,7.50
2023-03-29T07:38:41.831Z,7.50
2023-03-29T07:41:15.025Z,7.50
2023-03-29T07:43:52.007Z,7.60
2023-03-29T07:46:24.434Z,7.60
2023-03-29T07:48:52.268Z,7.60
2023-03-29T07:51:20.569Z,7.70
2023-03-29T07:53:50.027Z,7.70
2023-03-29T07:56:36.296Z,7.70
2023-03-29T07:59:16.765Z,7.70
2023-03-29T08:01:46.783Z,7.80
2023-03-29T08:04:23.378Z,7.80
2023-03-29T08:07:09.189Z,7.80
2023-03-29T08:10:03.326Z,7.80
2023-03-29T08:13:07.473Z,7.90
2023-03-29T08:16:06.898Z,7.90
2023-03-29T08:18:39.114Z,7.90
2023-03-29T08:21:07.429Z,7.90
2023-03-29T08:23:34.573Z,7.90
2023-03-29T08:26:09.852Z,7.90
2023-03-29T08:28:38.761Z,8.00
2023-03-29T08:31:09.969Z,8.00
2023-03-29T08:33:40.038Z,8.00
2023-03-29T08:36:26.832Z,8.00
2023-03-29T08:38:57.770Z,8.00
2023-03-29T08:41:50.232Z,8.00
2023-03-29T08:44:43.501Z,8.10
2023-03-29T08:47:27.705Z,8.10
2023-03-29T08:49:58.152Z,8.10
2023-03-29T08:52:38.612Z,8.10
2023-03-29T08:55:36.058Z,8.20
2023-03-29T08:58:33.656Z,8.20
2023-03-29T09:01:04.170Z,8.20
2023-03-29T09:03:49.914Z,8.20
2023-03-29T09:06:29.508Z,8.20
2023-03-29T09:09:19.923Z,8.30
2023-03-29T09:12:04.477Z,8.30
2023-03-29T09:14:55.995Z,8.30
2023-03-29T09:17:32.571Z,8.30
2023-03-29T09:20:21.096Z,8.30
2023-03-29T09:23:03.341Z,8.30
2023-03-29T09:26:20.273Z,8.30
2023-03-29T09:29:46.605Z,8.30
2023-03-29T09:32:26.631Z,8.30
2023-03-29T09:35:09.577Z,8.30
2023-03-29T09:37:39.988Z,8.30
2023-03-29T09:40:28.523Z,8.40
2023-03-29T09:43:15.282Z,8.40
2023-03-29T09:45:43.107Z,8.50
2023-03-29T09:48:15.382Z,8.50
2023-03-29T09:50:51.446Z,8.60
2023-03-29T09:53:21.943Z,8.60
2023-03-29T09:55:59.972Z,8.60
2023-03-29T09:58:56.571Z,8.70
2023-03-29T10:01:23.731Z,8.70
2023-03-29T10:03:53.393Z,8.70
2023-03-29T10:06:25.659Z,8.70
2023-03-29T10:09:00.142Z,8.70
2023-03-29T10:11:35.552Z,8.70
2023-03-29T10:14:14.612Z,8.70
2023-03-29T10:16:47.769Z,8.70
2023-03-29T10:19:20.796Z,8.70
2023-03-29T10:21:49.477Z,8.70
2023-03-29T10:24:25.424Z,8.70
2023-03-29T10:26:55.799Z,8.70
2023-03-29T10:29:27.789Z,8.70
2023-03-29T10:31:55.580Z,8.70
2023-03-29T10:34:26.198Z,8.70
2023-03-29T10:37:00.165Z,8.70
2023-03-29T10:39:32.591Z,8.70
2023-03-29T10:42:01.094Z,8.70
2023-03-29T10:44:37.573Z,8.70
2023-03-29T10:47:23.861Z,8.60
2023-03-29T10:50:01.637Z,8.70
2023-03-29T10:52:30.159Z,8.70
2023-03-29T10:55:00.052Z,8.70
2023-03-29T10:57:51.164Z,8.70
2023-03-29T11:00:28.560Z,8.70
2023-03-29T11:03:23.433Z,8.70
2023-03-29T11:06:04.282Z,8.70
2023-03-29T11:08:34.161Z,8.70
2023-03-29T11:11:06.818Z,8.70
2023-03-29T11:13:55.573Z,8.70
2023-03-29T11:16:35.688Z,8.70
2023-03-29T11:19:22.011Z,8.70
2023-03-29T11:22:04.417Z,8.70
2023-03-29T11:24:42.241Z,8.70
2023-03-29T11:27:27.923Z,8.70
2023-03-29T11:30:15.671Z,8.70
2023-03-29T11:33:10.663Z,8.70
2023-03-29T11:36:05.098Z,8.70
2023-03-29T11:38:45.311Z,8.70
2023-03-29T11:41:18.866Z,8.70
2023-03-29T11:43:51.599Z,8.80
2023-03-29T11:46:30.170Z,8.80
2023-03-29T11:49:00.753Z,8.80
2023-03-29T11:51:58.457Z,8.90
2023-03-29T11:54:49.357Z,8.90
2023-03-29T11:57:54.001Z,8.90
2023-03-29T12:00:30.547Z,8.90
2023-03-29T12:03:15.528Z,9.00
2023-03-29T12:05:51.737Z,9.00
2023-03-29T12:08:33.981Z,9.00
2023-03-29T12:11:22.973Z,9.00
2023-03-29T12:13:53.669Z,9.00
2023-03-29T12:16:52.077Z,9.00
2023-03-29T12:19:30.086Z,9.00
2023-03-29T12:21:59.470Z,9.00
2023-03-29T12:24:31.296Z,9.00
2023-03-29T12:27:27.195Z,9.00
2023-03-29T12:30:19.513Z,9.00
2023-03-29T12:32:58.714Z,9.10
2023-03-29T12:36:07.662Z,9.10
2023-03-29T12:39:15.874Z,9.10
2023-03-29T12:42:19.791Z,9.20
2023-03-29T12:45:05.990Z,9.20
2023-03-29T12:47:43.279Z,9.20
2023-03-29T12:50:33.011Z,9.20
2023-03-29T12:53:19.223Z,9.20
2023-03-29T12:56:08.729Z,9.30
2023-03-29T12:58:39.773Z,9.30
2023-03-29T13:01:32.489Z,9.40
2023-03-29T13:04:00.696Z,9.40
2023-03-29T13:06:31.989Z,9.40
2023-03-29T13:09:30.251Z,9.40
2023-03-29T13:12:08.254Z,9.40
2023-03-29T13:14:40.878Z,9.40
2023-03-29T13:17:18.743Z,9.40
2023-03-29T13:20:04.251Z,9.30
2023-03-29T13:22:34.516Z,9.30
2023-03-29T13:25:19.799Z,9.30
2023-03-29T13:28:23.750Z,9.20
2023-03-29T13:31:22.089Z,9.20
2023-03-29T13:34:05.576Z,9.20
2023-03-29T13:36:49.935Z,9.20
2023-03-29T13:39:24.791Z,9.10
2023-03-29T13:41:54.405Z,9.10
2023-03-29T13:44:46.270Z,9.00
2023-03-29T13:47:19.775Z,9.00
2023-03-29T13:49:54.934Z,9.00
2023-03-29T13:52:27.974Z,8.90
2023-03-29T13:55:13.916Z,8.90
2023-03-29T13:57:57.653Z,8.90
2023-03-29T14:00:46.290Z,8.90
2023-03-29T14:03:16.261Z,8.80
2023-03-29T14:05:50.825Z,8.80
2023-03-29T14:08:39.290Z,8.80
2023-03-29T14:11:12.952Z,8.80
2023-03-29T14:13:40.121Z,8.80
2023-03-29T14:16:11.449Z,8.80
2023-03-29T14:18:41.551Z,8.80
2023-03-29T14:21:11.544Z,8.80
2023-03-29T14:23:38.832Z,8.80
2023-03-29T14:26:18.735Z,8.80
2023-03-29T14:28:54.141Z,8.70
2023-03-29T14:31:26.938Z,8.70
2023-03-29T14:33:56.682Z,8.70
2023-03-29T14:36:25.862Z,8.70
2023-03-29T14:38:58.102Z,8.70
2023-03-29T14:41:31.257Z,8.70
2023-03-29T14:43:59.755Z,8.80
2023-03-29T14:46:27.566Z,8.70
2023-03-29T14:48:56.109Z,8.80
2023-03-29T14:51:34.605Z,8.80
2023-03-29T14:54:04.331Z,8.80
2023-03-29T14:56:33.802Z,8.80
2023-03-29T14:59:04.759Z,8.80
2023-03-29T15:01:32.494Z,8.90
2023-03-29T15:04:06.513Z,8.90
2023-03-29T15:06:40.347Z,8.90
2023-03-29T15:09:15.018Z,8.90
2023-03-29T15:11:42.345Z,9.00
2023-03-29T15:14:16.007Z,9.00
2023-03-29T15:16:45.762Z,9.00
2023-03-29T15:19:19.858Z,9.00
2023-03-29T15:21:49.748Z,9.00
2023-03-29T15:24:33.987Z,8.90
2023-03-29T15:27:13.831Z,8.90
2023-03-29T15:29:43.834Z,8.90
2023-03-29T15:32:24.381Z,8.90
2023-03-29T15:35:02.840Z,8.90
2023-03-29T15:37:33.121Z,8.90
2023-03-29T15:40:00.545Z,8.80
2023-03-29T15:42:27.816Z,8.80
2023-03-29T15:44:56.532Z,8.80
2023-03-29T15:47:24.235Z,8.80
2023-03-29T15:49:51.818Z,8.80
2023-03-29T15:52:18.963Z,8.80
2023-03-29T15:54:46.391Z,8.80
2023-03-29T15:57:15.865Z,8.80
2023-03-29T15:59:43.918Z,8.80
2023-03-29T16:02:16.516Z,8.80
2023-03-29T16:04:43.848Z,8.80
2023-03-29T16:07:15.371Z,8.80
2023-03-29T16:09:43.339Z,8.80
2023-03-29T16:12:10.782Z,8.80
2023-03-29T16:14:38.467Z,8.80
2023-03-29T16:17:06.223Z,8.80
2023-03-29T16:19:34.109Z,8.90
2023-03-29T16:22:05.171Z,8.90
2023-03-29T16:24:33.710Z,8.90
2023-03-29T16:27:01.889Z,8.90
2023-03-29T16:29:29.281Z,8.90
2023-03-29T16:31:56.740Z,8.90
2023-03-29T16:34:23.984Z,8.90
2023-03-29T16:36:53.094Z,8.90
2023-03-29T16:39:20.342Z,8.90
2023-03-29T16:41:49.156Z,8.90
2023-03-29T16:44:20.682Z,8.80
2023-03-29T16:46:49.083Z,8.80
2023-03-29T16:49:18.267Z,8.80
2023-03-29T16:51:46.993Z,8.80
2023-03-29T16:54:15.169Z,8.70
2023-03-29T16:56:42.892Z,8.70
2023-03-29T16:59:10.554Z,8.70
2023-03-29T17:01:38.718Z,8.70
2023-03-29T17:04:06.021Z,8.70
2023-03-29T17:06:33.193Z,8.70
2023-03-29T17:09:00.812Z,8.70
2023-03-29T17:11:28.617Z,8.70
2023-03-29T17:13:56.321Z,8.70
2023-03-29T17:16:24.019Z,8.70
2023-03-29T17:18:51.441Z,8.70
2023-03-29T17:21:18.681Z,8.70
2023-03-29T17:23:46.125Z,8.70
2023-03-29T17:26:13.512Z,8.70
2023-03-29T17:28:40.719Z,8.70
2023-03-29T17:31:08.285Z,8.70
2023-03-29T17:33:36.317Z,8.70
2023-03-29T17:36:05.278Z,8.70
2023-03-29T17:38:34.462Z,8.70
2023-03-29T17:41:02.872Z,8.70
2023-03-29T17:43:30.448Z,8.70
2023-03-29T17:45:57.596Z,8.70
2023-03-29T17:48:24.972Z,8.70
2023-03-29T17:50:54.754Z,8.70
2023-03-29T17:53:21.834Z,8.70
2023-03-29T17:55:48.967Z,8.70
2023-03-29T17:58:16.738Z,8.70
2023-03-29T18:00:44.159Z,8.70
2023-03-29T18:03:13.002Z,8.70
2023-03-29T18:05:40.523Z,8.70
2023-03-29T18:08:08.842Z,8.70
2023-03-29T18:10:36.937Z,8.70
2023-03-29T18:13:04.050Z,8.70
2023-03-29T18:15:31.291Z,8.70
2023-03-29T18:17:58.500Z,8.70
2023-03-29T18:20:25.616Z,8.70
2023-03-29T18:22:52.784Z,8.70
2023-03-29T18:25:20.004Z,8.70
2023-03-29T18:27:47.064Z,8.70
2023-03-29T18:30:16.833Z,8.70
2023-03-29T18:32:44.030Z,8.80
2023-03-29T18:35:11.664Z,8.80
2023-03-29T18:37:38.916Z,8.80
2023-03-29T18:40:10.325Z,8.80
2023-03-29T18:42:37.656Z,8.80
2023-03-29T18:45:05.549Z,8.80
2023-03-29T18:47:33.264Z,8.80
2023-03-29T18:50:01.112Z,8.80
2023-03-29T18:52:28.350Z,8.80
2023-03-29T18:54:55.626Z,8.80
2023-03-29T18:57:23.168Z,8.80
2023-03-29T18:59:50.378Z,8.80
2023-03-29T19:02:17.698Z,8.80
2023-03-29T19:04:44.952Z,8.80
2023-03-29T19:07:12.210Z,8.80
2023-03-29T19:09:39.368Z,8.80
2023-03-29T19:12:06.766Z,8.80
2023-03-29T19:14:33.938Z,8.80
2023-03-29T19:17:01.212Z,8.80
2023-03-29T19:19:28.440Z,8.80
2023-03-29T19:21:59.016Z,8.80
2023-03-29T19:24:27.561Z,8.80
2023-03-29T19:26:54.681Z,8.70
2023-03-29T19:29:21.935Z,8.70
2023-03-29T19:31:51.028Z,8.70
2023-03-29T19:34:21.237Z,8.70
2023-03-29T19:36:48.517Z,8.70
2023-03-29T19:39:15.988Z,8.70
2023-03-29T19:41:43.416Z,8.70
2023-03-29T19:44:10.692Z,8.70
2023-03-29T19:46:37.925Z,8.60
2023-03-29T19:49:05.794Z,8.60
2023-03-29T19:51:33.038Z,8.60
2023-03-29T19:54:00.701Z,8.60
2023-03-29T19:56:28.018Z,8.60
2023-03-29T19:58:55.817Z,8.60
2023-03-29T20:01:23.159Z,8.60
2023-03-29T20:03:51.001Z,8.60
2023-03-29T20:06:19.477Z,8.60
2023-03-29T20:08:47.044Z,8.60
2023-03-29T20:11:15.712Z,8.60
2023-03-29T20:13:44.670Z,8.60
2023-03-29T20:16:14.797Z,8.60
2023-03-29T20:18:45.012Z,8.60
2023-03-29T20:21:14.221Z,8.60
2023-03-29T20:23:41.355Z,8.60
2023-03-29T20:26:08.711Z,8.60
2023-03-29T20:28:37.865Z,8.60
2023-03-29T20:31:07.321Z,8.60
2023-03-29T20:33:34.680Z,8.70
2023-03-29T20:36:01.943Z,8.70
2023-03-29T20:38:29.171Z,8.70
2023-03-29T20:40:56.493Z,8.70
2023-03-29T20:43:24.428Z,8.70
2023-03-29T20:45:54.018Z,8.70
2023-03-29T20:48:30.442Z,8.70
2023-03-29T20:50:57.824Z,8.80
2023-03-29T20:53:25.867Z,8.80
2023-03-29T20:55:53.223Z,8.80
2023-03-29T20:58:20.517Z,8.80
2023-03-29T21:00:48.555Z,8.80
2023-03-29T21:03:15.927Z,8.80
2023-03-29T21:05:43.610Z,8.80
2023-03-29T21:08:11.087Z,8.80
2023-03-29T21:10:38.341Z,8.80
2023-03-29T21:13:06.066Z,8.80
2023-03-29T21:15:33.878Z,8.80
2023-03-29T21:18:01.359Z,8.80
2023-03-29T21:20:28.689Z,8.80
2023-03-29T21:22:56.374Z,8.80
2023-03-29T21:25:23.715Z,8.80
2023-03-29T21:27:50.801Z,8.80
2023-03-29T21:30:18.020Z,8.90
2023-03-29T21:32:45.440Z,9.00
2023-03-29T21:35:13.134Z,9.00
2023-03-29T21:37:40.622Z,9.00
2023-03-29T21:40:10.688Z,9.10
2023-03-29T21:42:38.232Z,9.00
2023-03-29T21:45:06.057Z,9.00
2023-03-29T21:47:33.421Z,9.00
2023-03-29T21:50:00.658Z,9.00
2023-03-29T21:52:27.771Z,9.00
2023-03-29T21:54:54.976Z,9.10
2023-03-29T21:57:22.371Z,9.00
2023-03-29T21:59:49.776Z,9.00
2023-03-29T22:02:17.123Z,9.00
2023-03-29T22:04:44.486Z,9.00
2023-03-29T22:07:12.494Z,9.00
2023-03-29T22:09:42.494Z,9.00
2023-03-29T22:12:10.651Z,9.00
2023-03-29T22:14:37.912Z,8.90
2023-03-29T22:17:09.560Z,8.90
2023-03-29T22:19:39.989Z,9.00
2023-03-29T22:22:13.773Z,9.00
2023-03-29T22:24:42.428Z,9.00
2023-03-29T22:27:11.366Z,9.00
2023-03-29T22:29:38.752Z,9.00
2023-03-29T22:32:06.041Z,9.00
2023-03-29T22:34:33.737Z,9.00
2023-03-29T22:37:01.079Z,9.00
2023-03-29T22:39:28.651Z,8.90
2023-03-29T22:41:56.237Z,8.90
2023-03-29T22:44:23.384Z,8.90
2023-03-29T22:46:51.088Z,8.90
2023-03-29T22:49:18.206Z,8.80
2023-03-29T22:51:45.491Z,8.80
2023-03-29T22:54:12.669Z,8.70
2023-03-29T22:56:39.949Z,8.70
2023-03-29T22:59:07.343Z,8.60
2023-03-29T23:01:35.161Z,8.60
2023-03-29T23:04:04.430Z,8.50
2023-03-29T23:06:31.673Z,8.50
2023-03-29T23:08:58.911Z,8.40
2023-03-29T23:11:26.572Z,8.40
2023-03-29T23:13:54.146Z,8.30
2023-03-29T23:16:21.690Z,8.30
2023-03-29T23:18:49.541Z,8.20
2023-03-29T23:21:16.914Z,8.20
2023-03-29T23:23:44.809Z,8.20
2023-03-29T23:26:12.021Z,8.10
2023-03-29T23:28:39.167Z,8.10
2023-03-29T23:31:10.085Z,8.10
2023-03-29T23:33:40.491Z,8.10
2023-03-29T23:36:16.205Z,8.10
2023-03-29T23:38:46.057Z,8.20
2023-03-29T23:41:13.941Z,8.30
2023-03-29T23:43:43.180Z,8.40
2023-03-29T23:46:14.246Z,8.50
2023-03-29T23:48:46.158Z,8.60
2023-03-29T23:51:13.950Z,8.60
2023-03-29T23:53:41.656Z,8.60
2023-03-29T23:56:09.237Z,8.70
2023-03-29T23:58:38.120Z,8.70
